Time;durP1;ratioP1;P1;durP2;ratioP2;P2;SDS_P1;SDS_P2;PMS_P1;PMS_P2;Temp;Humidity;BMP_temperature;BMP_pressure;BME280_temperature;BME280_humidity;BME280_pressure;Samples;Min_cycle;Max_cycle;Signal;HPM_P1;HPM_P2
2023/12/29 00:00:20;;;;;;;0.90;0.50;;;9.80;99.90;;;;;;5092128;28;20699;-58
2023/12/29 00:02:47;;;;;;;0.60;0.40;;;9.80;99.90;;;;;;5088446;28;20429;-58
2023/12/29 00:05:14;;;;;;;1.20;0.50;;;9.90;99.90;;;;;;5091269;28;20460;-58
2023/12/29 00:07:42;;;;;;;0.90;0.40;;;10.00;99.90;;;;;;5090719;28;20429;-58
2023/12/29 00:10:09;;;;;;;0.63;0.32;;;10.00;99.90;;;;;;5092525;28;20422;-57
2023/12/29 00:12:37;;;;;;;1.00;0.50;;;10.00;99.90;;;;;;5091443;28;20430;-57
2023/12/29 00:15:04;;;;;;;0.60;0.40;;;10.00;99.90;;;;;;5090518;28;20425;-56
2023/12/29 00:17:36;;;;;;;0.90;0.40;;;10.10;99.90;;;;;;5090111;28;20426;-56
2023/12/29 00:20:04;;;;;;;1.00;0.43;;;10.10;99.90;;;;;;5090638;28;20445;-57
2023/12/29 00:22:31;;;;;;;1.70;0.50;;;10.10;99.90;;;;;;5091092;28;20437;-57
2023/12/29 00:24:58;;;;;;;0.70;0.40;;;10.00;99.90;;;;;;5089856;28;20456;-55
2023/12/29 00:27:26;;;;;;;0.80;0.50;;;10.00;99.90;;;;;;5090032;28;20421;-57
2023/12/29 00:29:53;;;;;;;0.70;0.40;;;10.00;99.90;;;;;;5089722;28;20421;-57
2023/12/29 00:32:20;;;;;;;0.80;0.50;;;10.00;99.90;;;;;;5089539;28;20417;-57
2023/12/29 00:34:48;;;;;;;0.88;0.50;;;10.10;99.90;;;;;;5073688;28;20419;-58
2023/12/29 00:37:15;;;;;;;0.80;0.50;;;10.00;99.90;;;;;;5091375;28;20436;-58
2023/12/29 00:39:43;;;;;;;1.10;0.50;;;10.00;99.90;;;;;;5090072;28;20504;-57
2023/12/29 00:42:10;;;;;;;0.60;0.40;;;10.00;99.90;;;;;;5090112;28;20422;-57
2023/12/29 00:44:37;;;;;;;0.82;0.40;;;10.00;99.90;;;;;;5089106;28;21011;-58
2023/12/29 00:47:04;;;;;;;0.70;0.40;;;10.10;99.90;;;;;;5090097;28;20727;-57
2023/12/29 00:49:31;;;;;;;0.90;0.40;;;10.10;99.90;;;;;;5090980;28;20430;-58
2023/12/29 00:52:02;;;;;;;1.10;0.50;;;10.10;99.90;;;;;;5091364;28;20430;-57
2023/12/29 00:54:29;;;;;;;0.70;0.40;;;10.20;99.90;;;;;;5090624;28;20487;-59
2023/12/29 00:56:56;;;;;;;0.70;0.40;;;10.10;99.90;;;;;;5087102;28;20445;-57
2023/12/29 00:59:24;;;;;;;0.80;0.50;;;10.20;99.90;;;;;;5090101;28;20868;-58
2023/12/29 01:01:51;;;;;;;0.90;0.50;;;10.20;99.90;;;;;;5091610;28;20421;-54
2023/12/29 01:04:18;;;;;;;0.70;0.40;;;10.30;99.90;;;;;;5091042;28;20429;-56
2023/12/29 01:06:45;;;;;;;0.60;0.40;;;10.30;99.90;;;;;;5092377;28;20556;-58
2023/12/29 01:09:13;;;;;;;0.80;0.50;;;10.30;99.90;;;;;;5091549;28;20516;-58
2023/12/29 01:11:40;;;;;;;0.80;0.40;;;10.30;99.90;;;;;;5090883;28;20478;-58
2023/12/29 01:14:08;;;;;;;2.00;0.50;;;10.30;99.90;;;;;;5089517;28;20948;-57
2023/12/29 01:16:35;;;;;;;0.90;0.50;;;10.40;99.90;;;;;;5095696;28;20488;-58
2023/12/29 01:19:02;;;;;;;1.10;0.50;;;10.40;99.90;;;;;;5100462;28;20535;-57
2023/12/29 01:21:33;;;;;;;0.90;0.50;;;10.30;99.90;;;;;;5100817;28;20422;-57
2023/12/29 01:24:00;;;;;;;1.30;0.50;;;10.30;99.90;;;;;;5099777;28;20735;-58
2023/12/29 01:26:29;;;;;;;1.30;0.50;;;10.30;99.90;;;;;;5100009;28;20441;-57
2023/12/29 01:28:57;;;;;;;0.75;0.50;;;10.40;99.90;;;;;;5096263;28;20429;-57
2023/12/29 01:31:24;;;;;;;0.75;0.50;;;10.30;99.90;;;;;;5102786;28;20587;-57
2023/12/29 01:33:51;;;;;;;0.70;0.50;;;10.30;99.90;;;;;;5097614;28;20438;-58
2023/12/29 01:36:19;;;;;;;0.60;0.40;;;10.30;99.90;;;;;;5102809;28;20424;-57
2023/12/29 01:38:46;;;;;;;1.00;0.50;;;10.20;99.90;;;;;;5101609;28;20476;-57
2023/12/29 01:41:14;;;;;;;0.60;0.40;;;10.20;99.90;;;;;;5100259;28;20475;-58
2023/12/29 01:44:18;;;;;;;0.90;0.50;;;10.20;99.90;;;;;;5102371;28;20999;-58
2023/12/29 01:46:45;;;;;;;0.90;0.50;;;10.30;99.90;;;;;;5097427;28;20462;-56
2023/12/29 01:49:14;;;;;;;0.65;0.40;;;10.30;99.90;;;;;;5101999;28;20453;-57
2023/12/29 01:51:43;;;;;;;1.50;0.50;;;10.30;99.90;;;;;;5100214;28;20438;-55
2023/12/29 01:54:11;;;;;;;0.80;0.50;;;10.30;99.90;;;;;;5099863;28;20892;-56
2023/12/29 01:56:39;;;;;;;0.98;0.50;;;10.40;99.90;;;;;;5097266;28;20975;-56
2023/12/29 01:59:06;;;;;;;0.70;0.50;;;10.40;99.90;;;;;;5101077;28;20857;-57
2023/12/29 02:01:36;;;;;;;1.00;0.50;;;10.40;99.90;;;;;;5099652;28;20428;-56
2023/12/29 02:04:04;;;;;;;0.90;0.60;;;10.40;99.90;;;;;;5101745;28;20426;-54
2023/12/29 02:06:32;;;;;;;1.00;0.60;;;10.40;99.90;;;;;;5102205;28;20872;-57
2023/12/29 02:09:00;;;;;;;0.85;0.50;;;10.30;99.90;;;;;;5103122;28;20422;-57
2023/12/29 02:11:27;;;;;;;1.30;0.50;;;10.30;99.90;;;;;;5104796;28;20419;-57
2023/12/29 02:13:54;;;;;;;2.10;0.50;;;10.40;99.90;;;;;;5107905;28;20424;-57
2023/12/29 02:16:29;;;;;;;0.90;0.55;;;10.40;99.90;;;;;;5116107;28;20416;-56
2023/12/29 02:19:01;;;;;;;0.77;0.50;;;10.30;99.90;;;;;;5110782;28;20429;-55
2023/12/29 02:21:28;;;;;;;0.82;0.50;;;10.30;99.90;;;;;;5101010;28;20427;-58
2023/12/29 02:23:55;;;;;;;0.90;0.50;;;10.30;99.90;;;;;;5104033;28;20497;-58
2023/12/29 02:26:30;;;;;;;0.90;0.60;;;10.40;99.90;;;;;;5100988;28;20458;-58
2023/12/29 02:29:03;;;;;;;0.93;0.50;;;10.40;99.90;;;;;;5105281;28;20420;-58
2023/12/29 02:31:32;;;;;;;1.00;0.50;;;10.40;99.90;;;;;;5105492;28;20756;-57
2023/12/29 02:34:06;;;;;;;0.90;0.60;;;10.50;99.90;;;;;;5104455;28;20422;-57
2023/12/29 02:36:34;;;;;;;0.80;0.50;;;10.50;99.90;;;;;;5106204;28;20420;-57
2023/12/29 02:39:01;;;;;;;0.90;0.55;;;10.50;99.90;;;;;;5097552;28;20437;-57
2023/12/29 02:41:29;;;;;;;1.10;0.60;;;10.50;99.90;;;;;;5099509;28;20424;-58
2023/12/29 02:43:56;;;;;;;0.88;0.50;;;10.50;99.90;;;;;;5108458;28;20433;-58
2023/12/29 02:46:23;;;;;;;0.90;0.50;;;10.40;99.90;;;;;;5096661;28;20441;-57
2023/12/29 02:48:50;;;;;;;0.80;0.55;;;10.40;99.90;;;;;;5108399;28;20443;-58
2023/12/29 02:51:17;;;;;;;0.70;0.50;;;10.30;99.90;;;;;;5116482;28;20455;-57
2023/12/29 02:53:44;;;;;;;1.33;0.65;;;10.40;99.90;;;;;;5115737;28;20870;-58
2023/12/29 02:56:12;;;;;;;1.10;0.50;;;10.40;99.90;;;;;;5116291;28;20793;-57
2023/12/29 02:58:40;;;;;;;0.90;0.50;;;10.40;99.90;;;;;;5115699;28;20523;-56
2023/12/29 03:01:07;;;;;;;1.40;0.60;;;10.30;99.90;;;;;;5115660;28;20428;-58
2023/12/29 03:03:34;;;;;;;0.80;0.50;;;10.40;99.90;;;;;;5115481;28;20420;-56
2023/12/29 03:06:01;;;;;;;1.20;0.50;;;10.30;99.90;;;;;;5115832;28;20432;-57
2023/12/29 03:08:28;;;;;;;0.77;0.50;;;10.40;99.90;;;;;;5106304;28;20426;-57
2023/12/29 03:10:55;;;;;;;1.10;0.60;;;10.40;99.90;;;;;;5094224;28;20479;-57
2023/12/29 03:13:22;;;;;;;0.95;0.60;;;10.30;99.90;;;;;;5109495;28;20722;-57
2023/12/29 03:15:50;;;;;;;0.80;0.60;;;10.30;99.90;;;;;;5103508;28;20874;-57
2023/12/29 03:18:17;;;;;;;0.80;0.50;;;10.30;99.90;;;;;;5114777;28;20424;-58
2023/12/29 03:20:44;;;;;;;1.10;0.70;;;10.30;99.90;;;;;;5114902;28;20719;-57
2023/12/29 03:23:11;;;;;;;1.90;0.70;;;10.20;99.90;;;;;;5116255;28;20419;-57
2023/12/29 03:25:38;;;;;;;1.20;0.60;;;10.20;1.00;;;;;;5115593;28;20428;-57
2023/12/29 03:28:06;;;;;;;1.02;0.60;;;10.30;99.90;;;;;;5115357;28;20451;-57
2023/12/29 03:30:33;;;;;;;0.93;0.60;;;10.30;99.90;;;;;;5115677;28;20485;-56
2023/12/29 03:33:01;;;;;;;1.15;0.65;;;10.30;99.90;;;;;;5114812;28;20428;-56
2023/12/29 03:35:28;;;;;;;1.03;0.60;;;10.20;99.90;;;;;;5115098;28;20570;-56
2023/12/29 03:37:57;;;;;;;1.13;0.67;;;10.10;1.00;;;;;;5121824;27;20418;-56
2023/12/29 03:40:24;;;;;;;0.80;0.60;;;10.00;1.00;;;;;;5136154;27;20425;-56
2023/12/29 03:42:51;;;;;;;0.98;0.60;;;10.00;1.00;;;;;;5121765;27;20456;-56
2023/12/29 03:45:18;;;;;;;0.88;0.50;;;10.00;1.00;;;;;;5115415;28;20412;-56
2023/12/29 03:47:45;;;;;;;1.40;0.50;;;10.00;1.00;;;;;;5114852;28;20504;-58
2023/12/29 03:50:13;;;;;;;0.90;0.60;;;9.90;1.00;;;;;;5114280;28;20443;-56
2023/12/29 03:52:40;;;;;;;2.60;0.60;;;9.90;1.00;;;;;;5114994;28;20486;-57
2023/12/29 03:55:08;;;;;;;1.67;0.60;;;9.90;1.00;;;;;;5113018;28;20866;-55
2023/12/29 03:57:35;;;;;;;0.80;0.50;;;9.90;1.00;;;;;;5112419;28;20416;-58
2023/12/29 04:00:03;;;;;;;0.70;0.50;;;10.00;1.00;;;;;;5113116;28;20424;-56
2023/12/29 04:02:30;;;;;;;0.90;0.50;;;10.00;1.00;;;;;;5112819;28;20484;-56
2023/12/29 04:04:57;;;;;;;1.00;0.50;;;10.00;1.00;;;;;;5114541;28;20742;-57
2023/12/29 04:07:25;;;;;;;1.45;0.50;;;9.90;1.00;;;;;;5113706;28;20439;-57
2023/12/29 04:09:52;;;;;;;0.85;0.50;;;9.80;1.00;;;;;;5113736;28;20430;-57
2023/12/29 04:12:19;;;;;;;1.00;0.50;;;9.80;1.00;;;;;;5113291;28;20465;-57
2023/12/29 04:14:47;;;;;;;0.80;0.50;;;9.90;1.00;;;;;;5114257;28;20434;-57
2023/12/29 04:17:14;;;;;;;0.70;0.50;;;9.80;1.00;;;;;;5113457;28;20469;-57
2023/12/29 04:19:41;;;;;;;0.68;0.40;;;9.90;1.00;;;;;;5114572;28;20905;-57
2023/12/29 04:22:09;;;;;;;0.68;0.40;;;9.90;1.00;;;;;;5115459;28;20444;-56
2023/12/29 04:24:39;;;;;;;1.00;0.50;;;9.90;1.00;;;;;;5114384;28;20777;-58
2023/12/29 04:27:06;;;;;;;1.00;0.50;;;10.00;1.00;;;;;;5113844;28;20520;-57
2023/12/29 04:29:33;;;;;;;0.70;0.40;;;9.90;1.00;;;;;;5115199;28;20533;-56
2023/12/29 04:32:00;;;;;;;0.90;0.50;;;10.00;1.00;;;;;;5113918;28;20821;-57
2023/12/29 04:34:27;;;;;;;0.80;0.50;;;10.00;1.00;;;;;;5113980;28;20483;-57
2023/12/29 04:36:54;;;;;;;0.90;0.50;;;9.90;1.00;;;;;;5114021;28;20416;-57
2023/12/29 04:39:22;;;;;;;1.00;0.50;;;9.90;10.00;;;;;;5113721;28;20511;-57
2023/12/29 04:41:50;;;;;;;1.02;0.50;;;9.80;16.30;;;;;;5112442;28;20428;-56
2023/12/29 04:44:17;;;;;;;0.70;0.50;;;9.70;27.00;;;;;;5115345;27;20931;-56
2023/12/29 04:46:44;;;;;;;0.83;0.50;;;9.70;35.50;;;;;;5121841;27;20452;-57
2023/12/29 04:49:11;;;;;;;1.55;0.50;;;9.70;43.60;;;;;;5132451;27;20427;-57
2023/12/29 04:51:39;;;;;;;1.70;0.50;;;9.70;43.30;;;;;;5133208;27;20426;-57
2023/12/29 04:54:06;;;;;;;0.80;0.50;;;9.80;47.60;;;;;;5115001;27;20424;-56
2023/12/29 04:56:33;;;;;;;1.13;0.50;;;9.80;39.20;;;;;;5112838;28;21027;-59
2023/12/29 04:59:01;;;;;;;0.90;0.50;;;9.80;41.20;;;;;;5112791;28;20837;-57
2023/12/29 05:01:28;;;;;;;0.80;0.50;;;9.80;39.60;;;;;;5113558;28;20505;-58
2023/12/29 05:03:55;;;;;;;1.00;0.50;;;9.80;37.50;;;;;;5110491;28;20435;-58
2023/12/29 05:06:22;;;;;;;0.95;0.50;;;9.80;38.30;;;;;;5114192;28;20432;-58
2023/12/29 05:08:49;;;;;;;0.85;0.50;;;9.80;48.30;;;;;;5113699;28;20427;-58
2023/12/29 05:11:16;;;;;;;0.70;0.50;;;9.90;43.50;;;;;;5113231;28;20465;-58
2023/12/29 05:13:44;;;;;;;0.70;0.50;;;9.80;41.10;;;;;;5112085;28;20500;-58
2023/12/29 05:16:12;;;;;;;0.80;0.50;;;9.80;45.40;;;;;;5112828;28;20432;-58
2023/12/29 05:18:39;;;;;;;0.90;0.52;;;9.80;48.90;;;;;;5091865;28;20433;-58
2023/12/29 05:21:14;;;;;;;0.70;0.40;;;9.80;44.80;;;;;;5101964;28;20419;-58
2023/12/29 05:23:41;;;;;;;0.70;0.40;;;9.80;50.00;;;;;;5104111;28;20424;-60
2023/12/29 05:26:08;;;;;;;0.80;0.50;;;9.90;52.90;;;;;;5098333;28;20423;-58
2023/12/29 05:28:35;;;;;;;0.73;0.50;;;10.00;55.70;;;;;;5090585;28;20879;-57
2023/12/29 05:31:03;;;;;;;0.80;0.50;;;10.10;52.50;;;;;;5091648;28;20429;-59
2023/12/29 05:33:32;;;;;;;0.90;0.50;;;10.10;55.10;;;;;;5103626;28;20519;-58
2023/12/29 05:35:59;;;;;;;0.90;0.50;;;10.00;62.30;;;;;;5105783;28;20429;-57
2023/12/29 05:38:27;;;;;;;0.70;0.40;;;9.90;89.30;;;;;;5106312;28;20420;-57
2023/12/29 05:40:54;;;;;;;0.80;0.50;;;9.90;93.30;;;;;;5112859;28;21013;-57
2023/12/29 05:43:21;;;;;;;0.80;0.50;;;9.90;98.50;;;;;;5105132;28;20841;-55
2023/12/29 05:45:48;;;;;;;1.05;0.60;;;9.80;99.90;;;;;;5092835;28;20840;-58
2023/12/29 05:48:15;;;;;;;0.80;0.50;;;9.80;99.90;;;;;;5105997;28;20424;-58
2023/12/29 05:50:44;;;;;;;1.30;0.50;;;9.90;99.90;;;;;;5101158;28;20686;-56
2023/12/29 05:53:11;;;;;;;1.00;0.60;;;9.90;99.90;;;;;;5094265;28;20417;-57
2023/12/29 05:55:38;;;;;;;1.00;0.50;;;9.90;99.90;;;;;;5098176;28;20422;-53
2023/12/29 05:58:05;;;;;;;0.80;0.50;;;9.90;99.90;;;;;;5116417;28;20412;-54
2023/12/29 06:00:33;;;;;;;0.70;0.40;;;9.90;99.90;;;;;;5113928;28;20831;-53
2023/12/29 06:03:00;;;;;;;0.70;0.50;;;9.80;99.90;;;;;;5113723;28;20438;-56
2023/12/29 06:05:27;;;;;;;0.63;0.40;;;9.80;99.90;;;;;;5114834;28;20465;-56
2023/12/29 06:07:56;;;;;;;1.10;0.60;;;9.80;99.90;;;;;;5115207;28;20448;-56
2023/12/29 06:10:23;;;;;;;0.80;0.60;;;9.80;99.90;;;;;;5116111;28;20466;-57
2023/12/29 06:12:51;;;;;;;1.80;0.50;;;9.80;99.90;;;;;;5115917;28;20863;-57
2023/12/29 06:15:18;;;;;;;1.15;0.50;;;9.80;99.90;;;;;;5103090;28;20890;-57
2023/12/29 06:17:45;;;;;;;1.50;0.47;;;9.70;99.90;;;;;;5116809;28;20427;-59
2023/12/29 06:20:12;;;;;;;0.90;0.60;;;9.70;99.90;;;;;;5116474;28;20423;-58
2023/12/29 06:22:41;;;;;;;1.00;0.50;;;9.70;99.90;;;;;;5116257;28;20511;-56
2023/12/29 06:25:12;;;;;;;1.10;0.50;;;9.70;99.90;;;;;;5115923;28;20428;-57
2023/12/29 06:27:40;;;;;;;0.90;0.50;;;9.70;99.90;;;;;;5115106;28;20420;-58
2023/12/29 06:30:08;;;;;;;0.85;0.50;;;9.70;99.90;;;;;;5116773;28;20438;-57
2023/12/29 06:32:36;;;;;;;1.10;0.60;;;9.60;99.90;;;;;;5114776;28;20515;-54
2023/12/29 06:35:04;;;;;;;1.30;0.60;;;9.60;99.90;;;;;;5114794;28;20918;-58
2023/12/29 06:37:32;;;;;;;0.80;0.50;;;9.60;99.90;;;;;;5115164;28;20416;-57
2023/12/29 06:39:59;;;;;;;1.00;0.50;;;9.60;99.90;;;;;;5103936;27;20429;-59
2023/12/29 06:42:28;;;;;;;0.80;0.50;;;9.60;99.90;;;;;;5095648;28;20410;-57
2023/12/29 06:44:55;;;;;;;0.93;0.50;;;9.60;99.90;;;;;;5114332;28;20431;-57
2023/12/29 06:47:22;;;;;;;0.70;0.50;;;9.60;99.90;;;;;;5113502;28;20439;-61
2023/12/29 06:49:49;;;;;;;1.08;0.50;;;9.70;99.90;;;;;;5115110;28;20454;-57
2023/12/29 06:52:17;;;;;;;0.95;0.50;;;9.70;99.90;;;;;;5116000;28;20424;-57
2023/12/29 06:54:44;;;;;;;0.85;0.40;;;9.70;99.90;;;;;;5114254;28;20425;-57
2023/12/29 06:57:14;;;;;;;1.30;0.50;;;9.70;99.90;;;;;;5112776;28;20424;-56
2023/12/29 06:59:42;;;;;;;1.40;0.50;;;9.70;99.90;;;;;;5112491;28;20526;-59
2023/12/29 07:02:09;;;;;;;0.70;0.50;;;9.80;99.90;;;;;;5113571;28;20878;-57
2023/12/29 07:04:37;;;;;;;0.90;0.40;;;9.80;99.90;;;;;;5115153;28;20439;-58
2023/12/29 07:07:04;;;;;;;0.70;0.50;;;10.10;99.90;;;;;;5109585;28;20443;-56
2023/12/29 07:09:32;;;;;;;0.70;0.40;;;10.40;99.90;;;;;;5114812;28;20408;-56
2023/12/29 07:11:59;;;;;;;0.70;0.50;;;10.30;99.90;;;;;;5112326;27;20436;-56
2023/12/29 07:14:26;;;;;;;0.65;0.40;;;10.20;99.90;;;;;;5108048;28;20446;-58
2023/12/29 07:16:54;;;;;;;1.20;0.43;;;10.10;99.90;;;;;;5112827;28;20447;-55
2023/12/29 07:19:21;;;;;;;0.70;0.40;;;10.00;99.90;;;;;;5111953;28;20759;-57
2023/12/29 07:21:48;;;;;;;0.60;0.40;;;10.00;99.90;;;;;;5112327;28;20734;-57
2023/12/29 07:24:16;;;;;;;0.70;0.40;;;10.00;99.90;;;;;;5114900;27;20739;-57
2023/12/29 07:26:43;;;;;;;0.77;0.40;;;10.00;99.90;;;;;;5109980;28;20438;-57
2023/12/29 07:29:10;;;;;;;0.70;0.40;;;10.10;99.90;;;;;;5111301;28;20435;-57
2023/12/29 07:31:39;;;;;;;1.30;0.40;;;10.00;99.90;;;;;;5109532;28;20440;-58
2023/12/29 07:34:08;;;;;;;0.70;0.40;;;9.90;99.90;;;;;;5109173;28;20728;-59
2023/12/29 07:36:39;;;;;;;1.45;0.40;;;9.90;99.90;;;;;;5113223;28;20432;-57
2023/12/29 07:39:06;;;;;;;0.60;0.40;;;9.80;99.90;;;;;;5112747;28;20438;-58
2023/12/29 07:41:34;;;;;;;1.40;0.40;;;9.90;99.90;;;;;;5111725;28;20444;-57
2023/12/29 07:44:01;;;;;;;0.60;0.40;;;9.80;99.90;;;;;;5111609;28;20436;-59
2023/12/29 07:46:28;;;;;;;1.40;0.40;;;10.00;99.90;;;;;;5107776;28;20443;-58
2023/12/29 07:48:55;;;;;;;0.70;0.40;;;9.90;99.90;;;;;;5110934;27;20506;-56
2023/12/29 07:51:23;;;;;;;0.80;0.40;;;9.90;99.90;;;;;;5109789;28;20428;-58
2023/12/29 07:53:51;;;;;;;0.65;0.40;;;9.80;99.90;;;;;;5113469;28;20762;-57
2023/12/29 07:56:18;;;;;;;0.60;0.40;;;9.90;99.90;;;;;;5108174;28;20462;-55
2023/12/29 07:58:45;;;;;;;0.65;0.40;;;9.90;99.90;;;;;;5110308;28;20799;-56
2023/12/29 08:01:12;;;;;;;2.10;0.50;;;10.00;99.90;;;;;;5108691;28;20743;-55
2023/12/29 08:03:39;;;;;;;1.20;0.40;;;10.20;99.90;;;;;;5112139;28;20416;-59
2023/12/29 08:06:06;;;;;;;0.70;0.47;;;10.10;99.90;;;;;;5107204;28;20903;-57
2023/12/29 08:08:35;;;;;;;0.90;0.50;;;10.20;99.90;;;;;;5109477;28;20449;-58
2023/12/29 08:11:02;;;;;;;1.15;0.50;;;10.20;99.90;;;;;;5104390;28;20915;-58
2023/12/29 08:13:29;;;;;;;1.20;0.50;;;10.10;99.90;;;;;;5110339;28;20730;-57
2023/12/29 08:15:56;;;;;;;1.80;0.50;;;10.20;99.90;;;;;;5110587;28;20808;-53
2023/12/29 08:18:22;;;;;;;0.90;0.40;;;10.20;99.90;;;;;;5110873;28;21041;-56
2023/12/29 08:20:49;;;;;;;0.90;0.40;;;10.20;99.90;;;;;;5100785;28;20870;-56
2023/12/29 08:23:17;;;;;;;0.70;0.40;;;10.20;99.90;;;;;;5103544;28;20512;-57
2023/12/29 08:25:46;;;;;;;0.60;0.40;;;10.30;99.90;;;;;;5102639;28;20443;-58
2023/12/29 08:28:13;;;;;;;0.60;0.40;;;10.40;99.90;;;;;;5109265;28;20743;-55
2023/12/29 08:30:40;;;;;;;0.60;0.40;;;10.20;99.90;;;;;;5098549;28;20432;-55
2023/12/29 08:33:07;;;;;;;0.70;0.40;;;10.30;99.90;;;;;;5102952;27;20546;-55
2023/12/29 08:35:34;;;;;;;0.80;0.40;;;10.30;99.90;;;;;;5108019;28;20443;-54
2023/12/29 08:38:01;;;;;;;0.60;0.40;;;10.20;99.90;;;;;;5116265;27;20430;-56
2023/12/29 08:40:28;;;;;;;0.98;0.50;;;10.20;99.90;;;;;;5113556;27;20490;-56
2023/12/29 08:42:57;;;;;;;0.60;0.40;;;10.20;99.90;;;;;;5109055;28;20887;-55
2023/12/29 08:45:24;;;;;;;0.80;0.40;;;10.20;99.90;;;;;;5109926;28;20443;-56
2023/12/29 08:47:51;;;;;;;1.13;0.50;;;10.20;99.90;;;;;;5105628;28;20437;-56
2023/12/29 08:50:18;;;;;;;0.80;0.40;;;10.20;99.90;;;;;;5110635;28;20731;-57
2023/12/29 08:52:45;;;;;;;0.80;0.50;;;10.20;99.90;;;;;;5102135;28;20516;-57
2023/12/29 08:55:12;;;;;;;0.73;0.40;;;10.20;99.90;;;;;;5105580;28;20493;-57
2023/12/29 08:57:39;;;;;;;0.70;0.47;;;10.30;99.90;;;;;;5108772;28;20428;-56
2023/12/29 09:00:10;;;;;;;2.65;0.50;;;10.40;99.90;;;;;;5103730;27;20872;-57
2023/12/29 09:02:37;;;;;;;0.70;0.40;;;10.50;99.90;;;;;;5109105;28;20482;-57
2023/12/29 09:05:04;;;;;;;0.70;0.40;;;10.50;99.90;;;;;;5105317;28;20439;-55
2023/12/29 09:07:31;;;;;;;0.90;0.40;;;10.50;99.90;;;;;;5106702;28;20428;-57
2023/12/29 09:09:58;;;;;;;0.63;0.40;;;10.50;99.90;;;;;;5109272;28;20850;-56
2023/12/29 09:12:26;;;;;;;0.73;0.40;;;10.60;99.90;;;;;;5110984;28;20439;-57
2023/12/29 09:14:53;;;;;;;0.80;0.40;;;10.60;99.90;;;;;;5108726;28;20848;-58
2023/12/29 09:17:21;;;;;;;0.77;0.40;;;10.60;99.90;;;;;;5098446;28;20472;-55
2023/12/29 09:19:48;;;;;;;0.60;0.40;;;10.70;99.90;;;;;;5096112;28;20442;-57
2023/12/29 09:22:15;;;;;;;0.70;0.40;;;10.80;99.90;;;;;;5093529;28;20430;-56
2023/12/29 09:24:43;;;;;;;0.80;0.40;;;10.80;99.90;;;;;;5093263;28;21621;-57
2023/12/29 09:27:10;;;;;;;1.20;0.40;;;10.80;99.90;;;;;;5089500;28;20437;-55
2023/12/29 09:29:38;;;;;;;0.70;0.40;;;10.80;99.90;;;;;;5094436;28;20443;-58
2023/12/29 09:32:05;;;;;;;0.75;0.40;;;10.90;99.90;;;;;;5094439;28;20433;-57
2023/12/29 09:34:34;;;;;;;0.60;0.40;;;11.00;99.90;;;;;;5093183;28;20453;-56
2023/12/29 09:37:01;;;;;;;0.70;0.40;;;11.00;99.90;;;;;;5091619;28;20796;-57
2023/12/29 09:39:28;;;;;;;0.88;0.40;;;11.00;99.90;;;;;;5099959;28;20454;-57
2023/12/29 09:42:00;;;;;;;0.60;0.40;;;11.00;99.90;;;;;;5094951;28;20528;-53
2023/12/29 09:44:29;;;;;;;0.60;0.30;;;11.00;99.90;;;;;;5090044;28;20469;-57
2023/12/29 09:46:58;;;;;;;0.70;0.37;;;11.00;99.90;;;;;;5094291;28;20442;-55
2023/12/29 09:49:26;;;;;;;1.02;0.30;;;10.90;99.90;;;;;;5086678;28;20775;-56
2023/12/29 09:51:55;;;;;;;0.70;0.30;;;10.90;99.90;;;;;;5094886;28;20433;-55
2023/12/29 09:54:22;;;;;;;0.90;0.35;;;10.90;99.90;;;;;;5106398;28;20783;-56
2023/12/29 09:56:51;;;;;;;0.75;0.40;;;10.90;99.90;;;;;;5091986;28;20438;-59
2023/12/29 09:59:20;;;;;;;0.60;0.30;;;10.90;99.90;;;;;;5095640;28;20429;-59
2023/12/29 10:01:48;;;;;;;0.80;0.30;;;10.90;99.90;;;;;;5092529;28;21045;-59
2023/12/29 10:04:15;;;;;;;0.60;0.40;;;11.00;99.90;;;;;;5095379;28;20716;-59
2023/12/29 10:06:46;;;;;;;0.60;0.30;;;11.00;99.90;;;;;;5088514;28;20473;-59
2023/12/29 10:09:18;;;;;;;0.60;0.30;;;11.00;99.90;;;;;;5094900;28;20520;-59
2023/12/29 10:11:48;;;;;;;0.60;0.30;;;11.10;99.90;;;;;;5093062;28;20441;-59
2023/12/29 10:14:22;;;;;;;0.50;0.30;;;11.20;99.90;;;;;;5091037;28;20960;-59
2023/12/29 10:16:55;;;;;;;0.70;0.40;;;11.30;99.90;;;;;;5097919;28;20424;-59
2023/12/29 10:19:31;;;;;;;0.55;0.38;;;11.40;99.90;;;;;;5110783;28;20560;-60
2023/12/29 10:22:06;;;;;;;0.60;0.30;;;11.40;99.90;;;;;;5106874;28;20436;-59
2023/12/29 10:24:36;;;;;;;0.50;0.30;;;11.40;99.90;;;;;;5114805;28;20424;-59
2023/12/29 10:27:04;;;;;;;0.70;0.40;;;11.30;99.90;;;;;;5108249;28;20428;-59
2023/12/29 10:29:32;;;;;;;0.60;0.30;;;11.30;99.90;;;;;;5113543;28;20435;-58
2023/12/29 10:32:00;;;;;;;0.60;0.32;;;11.40;99.90;;;;;;5112525;27;20454;-59
2023/12/29 10:34:29;;;;;;;0.70;0.30;;;11.40;99.90;;;;;;5113217;28;20431;-57
2023/12/29 10:36:57;;;;;;;0.52;0.30;;;11.50;99.90;;;;;;5109834;28;20454;-58
2023/12/29 10:39:24;;;;;;;0.60;0.20;;;11.50;99.90;;;;;;5133952;27;20737;-57
2023/12/29 10:42:04;;;;;;;0.50;0.20;;;11.50;99.90;;;;;;5130822;27;20517;-57
2023/12/29 10:44:31;;;;;;;0.70;0.30;;;11.50;99.90;;;;;;5129431;27;20533;-56
2023/12/29 10:46:58;;;;;;;0.50;0.20;;;11.60;99.90;;;;;;5135638;27;20438;-56
2023/12/29 10:49:25;;;;;;;0.50;0.30;;;11.70;99.90;;;;;;5130301;27;20896;-57
2023/12/29 10:51:52;;;;;;;0.50;0.30;;;11.70;99.90;;;;;;5130328;27;20444;-56
2023/12/29 10:54:23;;;;;;;0.50;0.30;;;11.80;99.90;;;;;;5130806;27;20433;-56
2023/12/29 10:57:02;;;;;;;0.30;0.20;;;11.80;99.90;;;;;;5130727;27;20525;-54
2023/12/29 10:59:29;;;;;;;0.50;0.30;;;11.80;99.90;;;;;;5131774;27;20490;-56
2023/12/29 11:01:57;;;;;;;0.57;0.30;;;11.80;99.90;;;;;;5131474;27;20882;-56
2023/12/29 11:04:24;;;;;;;0.50;0.28;;;11.80;99.90;;;;;;5134741;27;20425;-56
2023/12/29 11:06:52;;;;;;;0.70;0.20;;;11.90;99.90;;;;;;5131919;27;20849;-57
2023/12/29 11:09:29;;;;;;;0.60;0.30;;;11.90;99.90;;;;;;5133103;27;20426;-57
2023/12/29 11:12:00;;;;;;;0.50;0.30;;;12.00;99.90;;;;;;5131362;27;20431;-56
2023/12/29 11:14:28;;;;;;;0.50;0.30;;;12.00;99.90;;;;;;5132247;27;20415;-58
2023/12/29 11:16:56;;;;;;;0.50;0.30;;;12.00;99.90;;;;;;5130276;27;20871;-56
2023/12/29 11:19:23;;;;;;;0.50;0.30;;;12.00;99.90;;;;;;5131912;27;20477;-59
2023/12/29 11:21:53;;;;;;;0.40;0.30;;;12.00;99.90;;;;;;5132322;27;20858;-57
2023/12/29 11:24:20;;;;;;;0.50;0.30;;;12.00;99.90;;;;;;5129485;27;20521;-58
2023/12/29 11:26:47;;;;;;;0.57;0.30;;;12.00;99.90;;;;;;5130835;27;20800;-56
2023/12/29 11:29:17;;;;;;;0.40;0.30;;;12.10;99.90;;;;;;5132023;27;20426;-57
2023/12/29 11:31:45;;;;;;;0.50;0.30;;;12.10;99.90;;;;;;5128823;27;20438;-58
2023/12/29 11:34:17;;;;;;;0.50;0.30;;;12.20;99.90;;;;;;5130330;27;20439;-58
2023/12/29 11:36:47;;;;;;;0.98;0.30;;;12.20;99.90;;;;;;5129102;27;20490;-59
2023/12/29 11:39:22;;;;;;;0.43;0.30;;;12.30;99.90;;;;;;5126394;27;20434;-58
2023/12/29 11:41:58;;;;;;;0.80;0.30;;;12.20;99.90;;;;;;5131157;27;20434;-57
2023/12/29 11:44:29;;;;;;;1.07;0.30;;;12.20;99.90;;;;;;5130497;27;20462;-58
2023/12/29 11:46:58;;;;;;;0.40;0.30;;;12.20;99.90;;;;;;5128984;27;20521;-58
2023/12/29 11:49:25;;;;;;;0.50;0.30;;;12.30;99.90;;;;;;5132667;27;20526;-58
2023/12/29 11:51:52;;;;;;;0.60;0.30;;;12.30;99.90;;;;;;5128838;27;20539;-59
2023/12/29 11:54:28;;;;;;;0.40;0.20;;;12.40;99.90;;;;;;5116690;27;20436;-58
2023/12/29 11:56:55;;;;;;;0.50;0.20;;;12.40;99.90;;;;;;5122139;27;20422;-60
2023/12/29 11:59:24;;;;;;;0.45;0.30;;;12.40;99.90;;;;;;5133326;27;20414;-58
2023/12/29 12:01:54;;;;;;;0.70;0.20;;;12.50;99.90;;;;;;5130320;27;20719;-59
2023/12/29 12:04:41;;;;;;;0.50;0.30;;;12.50;99.90;;;;;;5133633;27;20419;-57
2023/12/29 12:07:10;;;;;;;0.50;0.30;;;12.50;99.90;;;;;;5128817;27;20517;-58
2023/12/29 12:09:37;;;;;;;0.50;0.30;;;12.50;99.90;;;;;;5131381;27;20487;-57
2023/12/29 12:12:05;;;;;;;0.50;0.30;;;12.50;99.90;;;;;;5129825;27;20475;-57
2023/12/29 12:14:50;;;;;;;0.40;0.30;;;12.50;99.90;;;;;;5134066;27;20422;-58
2023/12/29 12:17:32;;;;;;;0.40;0.20;;;12.40;99.90;;;;;;5130374;27;20457;-57
2023/12/29 12:20:04;;;;;;;0.50;0.30;;;12.40;99.90;;;;;;5130880;27;20414;-57
2023/12/29 12:22:32;;;;;;;0.60;0.30;;;12.40;99.90;;;;;;5130632;27;20437;-57
2023/12/29 12:25:00;;;;;;;0.50;0.30;;;12.40;99.90;;;;;;5132803;27;20422;-58
2023/12/29 12:27:28;;;;;;;0.50;0.30;;;12.40;99.90;;;;;;5131753;27;20434;-58
2023/12/29 12:29:59;;;;;;;0.60;0.30;;;12.50;99.90;;;;;;5129156;27;20732;-58
2023/12/29 12:32:27;;;;;;;0.40;0.30;;;12.50;99.90;;;;;;5130790;27;20525;-57
2023/12/29 12:34:55;;;;;;;0.50;0.20;;;12.60;99.90;;;;;;5133101;27;20475;-58
2023/12/29 12:37:23;;;;;;;0.60;0.30;;;12.60;99.90;;;;;;5129815;27;20489;-57
2023/12/29 12:39:51;;;;;;;0.60;0.30;;;12.60;99.90;;;;;;5132700;27;20830;-56
2023/12/29 12:42:19;;;;;;;0.60;0.30;;;12.60;99.90;;;;;;5130172;27;20426;-57
2023/12/29 12:44:55;;;;;;;0.50;0.30;;;12.70;99.90;;;;;;5127821;27;20429;-58
2023/12/29 12:47:29;;;;;;;0.50;0.30;;;12.70;99.90;;;;;;5124179;27;20449;-57
2023/12/29 12:49:57;;;;;;;0.55;0.30;;;12.70;99.90;;;;;;5112554;27;20549;-58
2023/12/29 12:52:24;;;;;;;0.50;0.30;;;12.80;99.90;;;;;;5129860;27;20434;-58
2023/12/29 12:54:55;;;;;;;0.60;0.30;;;12.80;99.90;;;;;;5132862;27;20503;-58